Time;durP1;ratioP1;P1;durP2;ratioP2;P2;SDS_P1;SDS_P2;PMS_P1;PMS_P2;Temp;Humidity;BMP_temperature;BMP_pressure;BME280_temperature;BME280_humidity;BME280_pressure;Samples;Min_cycle;Max_cycle;Signal;HPM_P1;HPM_P2
2022/08/27 00:00:12;;;;;;;11.40;10.10;;;19.00;99.90;;;;;;5089091;28;20559;-38
2022/08/27 00:02:38;;;;;;;9.47;8.67;;;19.00;99.90;;;;;;5089084;28;20436;-38
2022/08/27 00:05:04;;;;;;;8.80;7.90;;;18.90;99.90;;;;;;5089022;28;20533;-41
2022/08/27 00:07:30;;;;;;;8.10;7.30;;;18.90;99.90;;;;;;5088534;28;20218;-41
2022/08/27 00:09:55;;;;;;;9.87;8.60;;;18.90;99.90;;;;;;5088595;28;20426;-39
2022/08/27 00:12:21;;;;;;;12.40;7.30;;;18.80;99.90;;;;;;5089754;28;20228;-42
2022/08/27 00:14:47;;;;;;;7.30;6.60;;;18.80;99.90;;;;;;5092584;28;20303;-39
2022/08/27 00:17:13;;;;;;;8.80;7.20;;;18.80;99.90;;;;;;5091140;28;20248;-41
2022/08/27 00:19:40;;;;;;;9.30;7.83;;;18.90;99.90;;;;;;5092241;28;20190;-38
2022/08/27 00:22:08;;;;;;;9.97;7.80;;;18.90;99.90;;;;;;5092623;28;20850;-38
2022/08/27 00:24:35;;;;;;;8.53;7.63;;;18.90;99.90;;;;;;5092455;28;20430;-38
2022/08/27 00:27:01;;;;;;;8.60;7.10;;;18.90;99.90;;;;;;5091872;28;20434;-41
2022/08/27 00:29:27;;;;;;;9.00;8.20;;;18.80;99.90;;;;;;5092135;28;20433;-39
2022/08/27 00:31:53;;;;;;;8.53;7.73;;;18.80;99.90;;;;;;5091085;28;20466;-41
2022/08/27 00:34:20;;;;;;;8.00;7.30;;;18.80;99.90;;;;;;5092058;28;20184;-40
2022/08/27 00:36:45;;;;;;;8.63;6.93;;;18.70;99.90;;;;;;5091705;28;20963;-38
2022/08/27 00:39:12;;;;;;;8.20;7.40;;;18.80;99.90;;;;;;5091429;28;20431;-38
2022/08/27 00:41:39;;;;;;;8.10;7.20;;;18.70;99.90;;;;;;5092289;28;20196;-42
2022/08/27 00:44:05;;;;;;;7.87;7.17;;;18.80;99.90;;;;;;5091861;28;20427;-38
2022/08/27 00:46:38;;;;;;;9.33;8.33;;;18.80;99.90;;;;;;5091937;28;21141;-38
2022/08/27 00:49:27;;;;;;;8.93;7.77;;;18.70;99.90;;;;;;5091966;28;20427;-38
2022/08/27 00:52:15;;;;;;;7.80;7.13;;;18.60;99.90;;;;;;5090252;28;20518;-39
2022/08/27 00:54:41;;;;;;;8.93;6.57;;;18.70;99.90;;;;;;5091717;28;20992;-38
2022/08/27 00:57:07;;;;;;;8.37;6.60;;;18.70;99.90;;;;;;5089293;28;20505;-38
2022/08/27 00:59:33;;;;;;;10.70;6.57;;;18.70;99.90;;;;;;5091868;28;20184;-38
2022/08/27 01:02:18;;;;;;;8.63;7.27;;;18.70;99.90;;;;;;5091523;28;20464;-39
2022/08/27 01:04:48;;;;;;;6.20;5.60;;;18.70;99.90;;;;;;5091608;28;20588;-38
2022/08/27 01:07:14;;;;;;;7.90;5.90;;;18.70;99.90;;;;;;5089970;28;20419;-38
2022/08/27 01:09:42;;;;;;;6.50;5.80;;;18.70;99.90;;;;;;5091462;28;20507;-40
2022/08/27 01:12:10;;;;;;;7.20;6.60;;;18.70;99.90;;;;;;5091548;28;21074;-38
2022/08/27 01:14:36;;;;;;;8.67;7.07;;;18.60;99.90;;;;;;5090959;28;20501;-38
2022/08/27 01:17:02;;;;;;;8.10;7.30;;;18.60;99.90;;;;;;5090780;28;20458;-39
2022/08/27 01:19:54;;;;;;;9.43;7.20;;;18.60;99.90;;;;;;5091319;28;20450;-38
2022/08/27 01:22:25;;;;;;;6.77;6.10;;;18.60;99.90;;;;;;5091299;28;20505;-38
2022/08/27 01:24:54;;;;;;;7.70;5.60;;;18.50;99.90;;;;;;5089778;28;20972;-38
2022/08/27 01:27:24;;;;;;;7.00;6.30;;;18.50;99.90;;;;;;5090491;28;20435;-38
2022/08/27 01:29:50;;;;;;;7.60;6.03;;;18.50;99.90;;;;;;5091211;28;20414;-38
2022/08/27 01:32:26;;;;;;;7.00;5.87;;;18.50;99.90;;;;;;5090968;28;20469;-39
2022/08/27 01:34:52;;;;;;;6.23;5.70;;;18.40;99.90;;;;;;5089374;28;20918;-38
2022/08/27 01:37:19;;;;;;;7.17;6.47;;;18.40;99.90;;;;;;5090143;28;20422;-38
2022/08/27 01:39:45;;;;;;;6.70;6.10;;;18.30;99.90;;;;;;5091097;28;20533;-39
2022/08/27 01:42:17;;;;;;;6.90;6.20;;;18.30;99.90;;;;;;5087849;28;20926;-38
2022/08/27 01:45:06;;;;;;;7.03;6.43;;;18.40;99.90;;;;;;5089480;28;20495;-38
2022/08/27 01:47:32;;;;;;;7.13;6.43;;;18.40;99.90;;;;;;5088806;28;20782;-38
2022/08/27 01:50:00;;;;;;;6.40;5.80;;;18.30;99.90;;;;;;5090409;28;20426;-38
2022/08/27 01:52:28;;;;;;;7.57;5.60;;;18.30;99.90;;;;;;5090407;28;20470;-43
2022/08/27 01:54:54;;;;;;;6.23;5.70;;;18.30;99.90;;;;;;5090580;28;20426;-38
2022/08/27 01:57:21;;;;;;;6.00;5.50;;;18.30;99.90;;;;;;5088534;28;20469;-39
2022/08/27 01:59:47;;;;;;;8.57;7.07;;;18.30;99.90;;;;;;5090737;28;20430;-43
2022/08/27 02:02:15;;;;;;;6.80;6.30;;;18.30;99.90;;;;;;5090399;28;20782;-40
2022/08/27 02:04:42;;;;;;;7.20;6.50;;;18.30;99.90;;;;;;5090457;28;20223;-42
2022/08/27 02:07:08;;;;;;;9.10;6.33;;;18.30;99.90;;;;;;5088811;28;20497;-40
2022/08/27 02:09:34;;;;;;;8.03;7.00;;;18.20;99.90;;;;;;5085731;28;20438;-39
2022/08/27 02:12:00;;;;;;;7.13;6.47;;;18.20;99.90;;;;;;5090368;28;20466;-38
2022/08/27 02:14:27;;;;;;;6.70;5.70;;;18.20;99.90;;;;;;5090377;28;20193;-38
2022/08/27 02:16:53;;;;;;;9.93;5.93;;;18.20;99.90;;;;;;5089650;28;20498;-37
2022/08/27 02:19:20;;;;;;;6.90;6.20;;;18.20;99.90;;;;;;5089987;28;20530;-38
2022/08/27 02:21:46;;;;;;;8.00;6.70;;;18.20;99.90;;;;;;5090601;28;20932;-39
2022/08/27 02:24:12;;;;;;;6.97;6.30;;;18.10;99.90;;;;;;5090301;28;20461;-40
2022/08/27 02:26:38;;;;;;;8.20;6.47;;;18.10;99.90;;;;;;5090022;28;20462;-38
2022/08/27 02:29:04;;;;;;;7.13;6.43;;;18.10;99.90;;;;;;5088695;28;20702;-38
2022/08/27 02:31:30;;;;;;;7.37;6.50;;;18.10;99.90;;;;;;5090032;28;20288;-39
2022/08/27 02:33:56;;;;;;;6.50;5.77;;;18.00;99.90;;;;;;5090124;28;20510;-38
2022/08/27 02:36:23;;;;;;;7.17;5.93;;;17.90;99.90;;;;;;5089787;28;20522;-41
2022/08/27 02:38:49;;;;;;;9.40;6.13;;;17.90;99.90;;;;;;5088505;28;20441;-42
2022/08/27 02:41:15;;;;;;;6.90;5.30;;;17.90;99.90;;;;;;5090099;28;20510;-38
2022/08/27 02:43:42;;;;;;;7.50;6.20;;;17.90;99.90;;;;;;5089914;28;20488;-39
2022/08/27 02:46:10;;;;;;;7.50;5.03;;;17.80;99.90;;;;;;5089825;28;20426;-40
2022/08/27 02:48:37;;;;;;;8.70;5.70;;;17.90;99.90;;;;;;5089284;28;20837;-40
2022/08/27 02:51:04;;;;;;;7.87;5.67;;;17.90;99.90;;;;;;5090100;28;20523;-37
2022/08/27 02:53:31;;;;;;;9.20;5.30;;;17.90;99.90;;;;;;5089716;28;20433;-38
2022/08/27 02:55:57;;;;;;;5.67;4.57;;;17.90;99.90;;;;;;5088690;28;20487;-38
2022/08/27 02:58:23;;;;;;;7.87;4.93;;;17.90;99.90;;;;;;5088938;28;20422;-38
2022/08/27 03:00:49;;;;;;;6.30;5.20;;;17.90;99.90;;;;;;5089491;28;20442;-41
2022/08/27 03:03:14;;;;;;;7.53;4.60;;;17.90;99.90;;;;;;5089490;28;20434;-38
2022/08/27 03:05:40;;;;;;;9.50;5.10;;;17.90;99.90;;;;;;5089678;28;20520;-39
2022/08/27 03:08:06;;;;;;;7.67;4.70;;;17.90;99.90;;;;;;5089107;28;20218;-39
2022/08/27 03:10:32;;;;;;;8.63;5.33;;;17.80;99.90;;;;;;5089467;28;20216;-41
2022/08/27 03:12:58;;;;;;;6.73;4.70;;;17.70;99.90;;;;;;5089656;28;20434;-38
2022/08/27 03:15:23;;;;;;;5.70;4.63;;;17.80;99.90;;;;;;5089256;28;20230;-40
2022/08/27 03:20:39;;;;;;;8.33;5.00;;;17.60;99.90;;;;;;5089366;28;20430;-38
2022/08/27 03:23:08;;;;;;;6.97;4.97;;;17.60;99.90;;;;;;5089381;28;20434;-39
2022/08/27 03:25:35;;;;;;;5.97;5.37;;;17.50;99.90;;;;;;5089288;28;20424;-40
2022/08/27 03:28:01;;;;;;;5.87;5.17;;;17.50;99.90;;;;;;5088701;28;20864;-38
2022/08/27 03:30:27;;;;;;;9.30;5.27;;;17.50;99.90;;;;;;5089295;28;20957;-38
2022/08/27 03:32:53;;;;;;;6.90;5.27;;;17.50;99.90;;;;;;5089569;28;20437;-38
2022/08/27 03:35:20;;;;;;;7.97;5.90;;;17.50;99.90;;;;;;5089280;28;20181;-38
2022/08/27 03:37:46;;;;;;;7.00;5.60;;;17.50;99.90;;;;;;5088419;28;20430;-38
2022/08/27 03:40:13;;;;;;;7.47;6.40;;;17.50;99.90;;;;;;5089043;28;20811;-38
2022/08/27 03:42:40;;;;;;;7.77;5.87;;;17.40;99.90;;;;;;5089370;28;20494;-41
2022/08/27 03:45:07;;;;;;;8.23;5.70;;;17.40;99.90;;;;;;5089299;28;20977;-37
2022/08/27 03:47:34;;;;;;;7.20;6.47;;;17.40;99.90;;;;;;5089726;28;20430;-37
2022/08/27 03:50:00;;;;;;;7.97;6.00;;;17.50;99.90;;;;;;5093083;28;20456;-38
2022/08/27 03:52:26;;;;;;;7.23;5.90;;;17.40;99.90;;;;;;5092967;28;20690;-40
2022/08/27 03:54:52;;;;;;;10.40;5.90;;;17.40;99.90;;;;;;5092731;28;20203;-40
2022/08/27 03:57:18;;;;;;;9.07;5.80;;;17.50;99.90;;;;;;5090928;28;20423;-39
2022/08/27 03:59:43;;;;;;;9.30;6.37;;;17.50;99.90;;;;;;5093097;28;20189;-38
2022/08/27 04:02:09;;;;;;;6.37;5.60;;;17.50;99.90;;;;;;5091693;28;20277;-38
2022/08/27 04:04:35;;;;;;;6.07;5.07;;;17.40;99.90;;;;;;5091050;28;20215;-38
2022/08/27 04:07:00;;;;;;;10.77;5.50;;;17.40;99.90;;;;;;5084678;28;20195;-42
2022/08/27 04:09:27;;;;;;;12.87;6.07;;;17.40;99.90;;;;;;5092476;28;20202;-40
2022/08/27 04:11:52;;;;;;;9.57;6.10;;;17.40;99.90;;;;;;5092699;28;20200;-40
2022/08/27 04:14:18;;;;;;;8.63;5.40;;;17.40;99.90;;;;;;5092741;28;21032;-39
2022/08/27 04:16:44;;;;;;;6.30;5.60;;;17.40;99.90;;;;;;5091991;28;20220;-40
2022/08/27 04:19:11;;;;;;;5.40;4.83;;;17.40;99.90;;;;;;5092598;28;20189;-37
2022/08/27 04:21:37;;;;;;;5.90;4.97;;;17.40;99.90;;;;;;5092424;28;20192;-38
2022/08/27 04:24:03;;;;;;;7.50;4.87;;;17.40;99.90;;;;;;5092174;28;20522;-38
2022/08/27 04:26:29;;;;;;;5.47;4.87;;;17.40;99.90;;;;;;5092464;28;20426;-39
2022/08/27 04:28:56;;;;;;;11.00;5.70;;;17.40;99.90;;;;;;5091920;28;20438;-37
2022/08/27 04:31:23;;;;;;;5.50;4.97;;;17.40;99.90;;;;;;5092641;28;20227;-39
2022/08/27 04:33:48;;;;;;;6.07;4.73;;;17.50;99.90;;;;;;5092251;28;20517;-39
2022/08/27 04:36:16;;;;;;;6.20;4.53;;;17.50;99.90;;;;;;5092367;28;20510;-39
2022/08/27 04:38:42;;;;;;;5.07;4.60;;;17.40;99.90;;;;;;5090764;28;20210;-39
2022/08/27 04:41:18;;;;;;;6.07;5.30;;;17.40;99.90;;;;;;5090037;28;20509;-38
2022/08/27 04:43:45;;;;;;;7.07;5.50;;;17.40;99.90;;;;;;5091928;28;20473;-38
2022/08/27 04:46:11;;;;;;;6.40;5.03;;;17.40;99.90;;;;;;5092168;28;20459;-38
2022/08/27 04:48:37;;;;;;;7.80;5.13;;;17.40;99.90;;;;;;5091335;28;20461;-38
2022/08/27 04:51:03;;;;;;;6.37;4.40;;;17.40;99.90;;;;;;5091901;28;20662;-39
2022/08/27 04:53:29;;;;;;;9.23;5.70;;;17.40;99.90;;;;;;5091311;28;20430;-37
2022/08/27 04:55:56;;;;;;;9.23;4.93;;;17.40;99.90;;;;;;5090433;28;20430;-38
2022/08/27 04:58:23;;;;;;;6.50;4.63;;;17.40;99.90;;;;;;5090856;28;20238;-39
2022/08/27 05:00:51;;;;;;;7.40;4.40;;;17.40;99.90;;;;;;5091889;28;20438;-39
2022/08/27 05:03:19;;;;;;;7.57;4.93;;;17.40;99.90;;;;;;5091583;28;20483;-38
2022/08/27 05:05:46;;;;;;;4.73;4.30;;;17.30;99.90;;;;;;5091565;28;20847;-38
2022/08/27 05:08:12;;;;;;;6.30;5.17;;;17.20;99.90;;;;;;5091286;28;20441;-38
2022/08/27 05:10:40;;;;;;;7.03;4.60;;;17.20;99.90;;;;;;5090379;28;20901;-41
2022/08/27 05:13:07;;;;;;;9.43;5.50;;;17.20;99.90;;;;;;5090158;28;20429;-38
2022/08/27 05:15:33;;;;;;;5.53;4.87;;;17.20;99.90;;;;;;5091602;28;20422;-40
2022/08/27 05:17:59;;;;;;;5.77;4.50;;;17.20;99.90;;;;;;5072691;28;20426;-37
2022/08/27 05:20:26;;;;;;;7.40;4.47;;;17.20;99.90;;;;;;5091113;28;20824;-38
2022/08/27 05:22:52;;;;;;;6.70;5.00;;;17.20;99.90;;;;;;5091521;28;20435;-38
2022/08/27 05:25:17;;;;;;;9.43;5.70;;;17.20;99.90;;;;;;5091275;28;20428;-38
2022/08/27 05:27:43;;;;;;;7.33;5.10;;;17.20;99.90;;;;;;5090773;28;20188;-38
2022/08/27 05:30:09;;;;;;;6.33;5.00;;;17.20;99.90;;;;;;5091139;28;20220;-38
2022/08/27 05:32:35;;;;;;;7.67;4.20;;;17.20;99.90;;;;;;5091422;28;20192;-39
2022/08/27 05:35:01;;;;;;;5.70;5.10;;;17.20;99.90;;;;;;5090833;28;20438;-41
2022/08/27 05:37:27;;;;;;;8.27;5.87;;;17.20;99.90;;;;;;5090610;28;20187;-37
2022/08/27 05:39:52;;;;;;;6.93;5.13;;;17.20;99.90;;;;;;5089646;28;20187;-39
2022/08/27 05:42:18;;;;;;;6.57;4.70;;;17.20;99.90;;;;;;5089951;28;20422;-38
2022/08/27 05:44:45;;;;;;;7.70;4.77;;;17.20;99.90;;;;;;5089618;28;20207;-39
2022/08/27 05:47:10;;;;;;;5.03;4.53;;;17.20;99.90;;;;;;5090380;28;20182;-38
2022/08/27 05:49:36;;;;;;;5.20;4.70;;;17.20;99.90;;;;;;5090539;28;20454;-38
2022/08/27 05:52:02;;;;;;;5.33;3.90;;;17.20;99.90;;;;;;5087113;28;20641;-38
2022/08/27 05:54:28;;;;;;;7.87;4.77;;;17.20;99.90;;;;;;5096844;28;20438;-39
2022/08/27 05:56:53;;;;;;;4.33;3.93;;;17.20;99.90;;;;;;5088897;28;20192;-41
2022/08/27 06:02:04;;;;;;;6.30;3.93;;;17.20;99.90;;;;;;5090433;28;20180;-38
2022/08/27 06:04:30;;;;;;;7.33;3.87;;;17.20;99.90;;;;;;5089333;28;20450;-39
2022/08/27 06:06:56;;;;;;;8.03;4.00;;;17.20;99.90;;;;;;5089769;28;20924;-38
2022/08/27 06:09:24;;;;;;;6.87;4.10;;;17.20;99.90;;;;;;5090422;28;20652;-38
2022/08/27 06:11:53;;;;;;;5.60;3.70;;;17.20;99.90;;;;;;5086617;28;20211;-40
2022/08/27 06:14:18;;;;;;;5.30;3.60;;;17.20;99.90;;;;;;5088557;28;20479;-38
2022/08/27 06:16:44;;;;;;;6.53;4.30;;;17.30;99.90;;;;;;5089005;28;20799;-38
2022/08/27 06:19:11;;;;;;;4.60;3.50;;;17.30;99.90;;;;;;5088297;28;20168;-38
2022/08/27 06:21:38;;;;;;;9.80;4.13;;;17.30;99.90;;;;;;5089927;28;20180;-40
2022/08/27 06:24:03;;;;;;;3.97;3.53;;;17.30;99.90;;;;;;5090066;28;20788;-41
2022/08/27 06:26:29;;;;;;;4.63;3.80;;;17.30;99.90;;;;;;5090195;28;20435;-38
2022/08/27 06:28:55;;;;;;;6.00;4.83;;;17.30;99.90;;;;;;5089421;28;20219;-38
2022/08/27 06:31:26;;;;;;;4.63;4.23;;;17.30;99.90;;;;;;5089635;28;20216;-40
2022/08/27 06:33:56;;;;;;;8.27;6.00;;;17.30;99.90;;;;;;5090027;28;20517;-40
2022/08/27 06:36:24;;;;;;;12.67;6.37;;;17.30;99.90;;;;;;5083169;28;20422;-38
2022/08/27 06:38:50;;;;;;;8.10;6.27;;;17.30;99.90;;;;;;5088081;28;20533;-38
2022/08/27 06:41:19;;;;;;;6.10;5.50;;;17.30;99.90;;;;;;5090128;28;20530;-38
2022/08/27 06:43:46;;;;;;;6.60;5.90;;;17.40;99.90;;;;;;5089719;28;20418;-39
2022/08/27 06:46:15;;;;;;;7.83;7.07;;;17.40;99.90;;;;;;5089976;28;20426;-40
2022/08/27 06:48:43;;;;;;;8.53;7.50;;;17.40;99.90;;;;;;5088986;28;20834;-39
2022/08/27 06:51:15;;;;;;;8.63;6.70;;;17.40;99.90;;;;;;5089775;28;20454;-37
2022/08/27 06:53:42;;;;;;;11.50;7.07;;;17.40;99.90;;;;;;5085756;28;20956;-39
2022/08/27 06:56:10;;;;;;;10.33;7.17;;;17.40;99.90;;;;;;5087833;28;20422;-38
2022/08/27 06:58:36;;;;;;;7.83;6.33;;;17.30;99.90;;;;;;5088691;28;20910;-40
2022/08/27 07:01:14;;;;;;;7.40;6.27;;;17.30;99.90;;;;;;5089856;28;20438;-39
2022/08/27 07:03:42;;;;;;;6.83;5.73;;;17.40;99.90;;;;;;5089276;28;20987;-38
2022/08/27 07:06:08;;;;;;;9.47;5.80;;;17.40;99.90;;;;;;5089878;28;20978;-39
2022/08/27 07:08:34;;;;;;;6.20;5.10;;;17.40;99.90;;;;;;5088386;28;20434;-38
2022/08/27 07:11:00;;;;;;;8.10;5.00;;;17.40;99.90;;;;;;5089205;28;20466;-40
2022/08/27 07:13:26;;;;;;;6.33;4.10;;;17.40;99.90;;;;;;5089672;28;20660;-37
2022/08/27 07:15:52;;;;;;;5.80;4.37;;;17.50;99.90;;;;;;5089419;28;20426;-38
2022/08/27 07:18:18;;;;;;;6.60;3.60;;;17.50;99.90;;;;;;5088160;28;21126;-41
2022/08/27 07:20:43;;;;;;;4.47;3.90;;;17.50;99.90;;;;;;5089166;28;20204;-38
2022/08/27 07:23:09;;;;;;;5.37;4.20;;;17.50;99.90;;;;;;5092605;28;20587;-39
2022/08/27 07:25:35;;;;;;;4.37;3.93;;;17.50;99.90;;;;;;5092697;28;20192;-38
2022/08/27 07:28:01;;;;;;;5.57;3.93;;;17.50;99.90;;;;;;5093023;28;20212;-39
2022/08/27 07:30:27;;;;;;;7.43;4.50;;;17.50;99.90;;;;;;5093699;28;21086;-39
2022/08/27 07:32:53;;;;;;;7.10;5.33;;;17.50;99.90;;;;;;5092436;28;20192;-38
2022/08/27 07:35:19;;;;;;;8.33;4.90;;;17.60;99.90;;;;;;5093611;28;20776;-39
2022/08/27 07:37:45;;;;;;;7.60;5.60;;;17.70;99.90;;;;;;5092331;28;20458;-38
2022/08/27 07:40:13;;;;;;;6.83;6.23;;;17.60;99.90;;;;;;5092158;28;20188;-37
2022/08/27 07:45:26;;;;;;;6.80;6.10;;;17.80;99.90;;;;;;5093263;28;20458;-37
2022/08/27 07:47:53;;;;;;;7.27;5.57;;;17.80;99.90;;;;;;5092647;28;20437;-38
2022/08/27 07:50:19;;;;;;;5.53;5.03;;;17.80;99.90;;;;;;5092718;28;20442;-38
2022/08/27 07:52:45;;;;;;;5.80;5.00;;;17.90;99.90;;;;;;5093263;28;20429;-40
2022/08/27 07:55:13;;;;;;;5.77;5.27;;;18.00;99.90;;;;;;5092981;28;20831;-38
2022/08/27 07:57:39;;;;;;;7.97;5.30;;;18.00;99.90;;;;;;5089679;28;20196;-38
2022/08/27 08:00:09;;;;;;;6.53;5.80;;;18.00;99.90;;;;;;5092789;28;20434;-37
2022/08/27 08:02:36;;;;;;;7.13;5.33;;;18.00;99.90;;;;;;5093170;28;20418;-38
2022/08/27 08:05:02;;;;;;;7.43;5.27;;;18.10;99.90;;;;;;5092502;28;20445;-37
2022/08/27 08:07:28;;;;;;;49.40;12.53;;;18.30;99.90;;;;;;5092449;28;20452;-37
2022/08/27 08:09:54;;;;;;;19.10;5.20;;;18.40;99.90;;;;;;5092519;28;20936;-37
2022/08/27 08:12:20;;;;;;;43.43;9.87;;;18.50;99.90;;;;;;5092953;28;20216;-37
2022/08/27 08:14:45;;;;;;;8.07;4.87;;;18.60;99.90;;;;;;5091877;28;20262;-38
2022/08/27 08:17:12;;;;;;;15.37;4.40;;;18.70;99.90;;;;;;5092191;28;20797;-37
2022/08/27 08:19:39;;;;;;;5.37;3.40;;;18.70;99.90;;;;;;5092326;28;20216;-37
2022/08/27 08:22:04;;;;;;;5.43;4.10;;;18.60;99.90;;;;;;5092762;28;20846;-38
2022/08/27 08:24:30;;;;;;;4.40;3.50;;;18.50;99.90;;;;;;5092482;28;20438;-38
2022/08/27 08:26:56;;;;;;;5.70;3.27;;;18.40;99.90;;;;;;5092012;28;20207;-37
2022/08/27 08:29:21;;;;;;;7.03;3.57;;;18.40;99.90;;;;;;5092511;28;20283;-38
2022/08/27 08:31:47;;;;;;;10.87;3.77;;;18.40;99.90;;;;;;5092410;28;20224;-37
2022/08/27 08:34:14;;;;;;;8.40;3.47;;;18.40;99.90;;;;;;5091502;28;20187;-38
2022/08/27 08:36:40;;;;;;;4.83;3.17;;;18.50;99.90;;;;;;5091750;28;20197;-37
2022/08/27 08:39:05;;;;;;;4.13;3.03;;;18.60;99.90;;;;;;5092134;28;20433;-38
2022/08/27 08:41:34;;;;;;;4.13;2.83;;;18.60;99.90;;;;;;5092241;28;20725;-39
2022/08/27 08:44:04;;;;;;;3.27;2.90;;;18.60;99.90;;;;;;5092287;28;20188;-37
2022/08/27 08:46:36;;;;;;;5.10;3.40;;;18.70;99.90;;;;;;5090436;28;20469;-38
2022/08/27 08:49:41;;;;;;;3.40;3.03;;;18.70;99.90;;;;;;5091699;28;20525;-38
2022/08/27 08:52:16;;;;;;;4.70;3.23;;;18.80;99.90;;;;;;5065234;28;20855;-38
2022/08/27 08:54:43;;;;;;;5.73;2.73;;;18.80;99.90;;;;;;5091284;28;20422;-38
2022/08/27 08:57:32;;;;;;;5.87;3.27;;;18.80;99.90;;;;;;5089746;28;20434;-37
2022/08/27 09:00:11;;;;;;;6.40;3.30;;;18.90;99.90;;;;;;5091442;28;20997;-38
2022/08/27 09:02:37;;;;;;;4.03;3.43;;;18.90;99.90;;;;;;5091344;28;20418;-38
2022/08/27 09:05:06;;;;;;;8.33;3.53;;;19.00;99.90;;;;;;5091097;28;20786;-37
2022/08/27 09:07:44;;;;;;;5.77;3.27;;;19.00;99.90;;;;;;5090301;28;20434;-37
2022/08/27 09:10:51;;;;;;;4.43;3.23;;;19.00;99.90;;;;;;5091596;28;20422;-38
2022/08/27 09:13:42;;;;;;;5.70;3.70;;;19.00;99.90;;;;;;5048575;28;20902;-38
2022/08/27 09:16:08;;;;;;;5.30;3.37;;;19.10;99.90;;;;;;5048395;28;20458;-37
2022/08/27 09:18:38;;;;;;;6.37;2.90;;;19.10;99.90;;;;;;5071649;28;20426;-37
2022/08/27 09:21:31;;;;;;;9.47;3.00;;;19.10;99.90;;;;;;5091469;28;20462;-38
2022/08/27 09:24:03;;;;;;;4.50;3.20;;;19.20;99.90;;;;;;5091297;28;20449;-39
2022/08/27 09:26:31;;;;;;;4.43;2.97;;;19.20;99.90;;;;;;5091465;28;20519;-38
2022/08/27 09:29:20;;;;;;;4.53;3.07;;;19.20;99.90;;;;;;5091108;28;20441;-38
2022/08/27 09:31:47;;;;;;;3.63;2.50;;;19.20;99.90;;;;;;5091246;28;20480;-39
2022/08/27 09:34:14;;;;;;;3.60;2.93;;;19.30;99.90;;;;;;5091196;28;20454;-38
2022/08/27 09:36:58;;;;;;;5.33;2.80;;;19.20;99.90;;;;;;5090445;28;20427;-38
2022/08/27 09:39:39;;;;;;;3.30;2.73;;;19.20;99.90;;;;;;5076736;28;20460;-38
2022/08/27 09:42:06;;;;;;;4.60;2.50;;;19.20;99.90;;;;;;5091132;28;20486;-38
2022/08/27 09:44:44;;;;;;;3.93;3.53;;;19.20;99.90;;;;;;5090539;28;20529;-38
2022/08/27 09:47:13;;;;;;;3.10;2.40;;;19.20;99.90;;;;;;5089924;28;20434;-38
2022/08/27 09:49:40;;;;;;;6.60;2.90;;;19.20;99.90;;;;;;5091035;28;20426;-38
2022/08/27 09:52:06;;;;;;;4.03;2.53;;;19.30;99.90;;;;;;5090728;28;20472;-38
2022/08/27 09:54:40;;;;;;;5.10;2.33;;;19.40;99.90;;;;;;5090882;28;20573;-38
2022/08/27 09:57:07;;;;;;;6.87;3.20;;;19.50;99.90;;;;;;5089326;28;20461;-38
2022/08/27 09:59:42;;;;;;;4.80;3.00;;;19.50;99.90;;;;;;5090409;28;20923;-38
2022/08/27 10:02:18;;;;;;;4.80;2.20;;;19.50;99.90;;;;;;5091022;28;20473;-38
2022/08/27 10:04:49;;;;;;;3.63;2.40;;;19.60;99.90;;;;;;5090410;28;20503;-38
2022/08/27 10:07:27;;;;;;;4.50;2.43;;;19.80;99.90;;;;;;5086727;28;20529;-40
2022/08/27 10:10:16;;;;;;;4.03;2.23;;;19.80;99.90;;;;;;5086875;28;20815;-40
2022/08/27 10:12:53;;;;;;;2.83;2.07;;;20.00;99.90;;;;;;5087014;28;20411;-38
2022/08/27 10:15:22;;;;;;;7.17;3.30;;;20.20;99.90;;;;;;5087118;28;20419;-38
2022/08/27 10:17:59;;;;;;;3.10;2.10;;;20.30;99.90;;;;;;5086461;28;20429;-37
2022/08/27 10:20:47;;;;;;;5.23;2.80;;;20.40;99.90;;;;;;5086810;28;20925;-37
2022/08/27 10:23:27;;;;;;;2.50;2.00;;;20.50;99.90;;;;;;5086854;28;20454;-38
2022/08/27 10:25:57;;;;;;;3.97;2.20;;;20.50;99.90;;;;;;5086706;28;20462;-37
2022/08/27 10:29:00;;;;;;;3.73;2.47;;;20.50;99.90;;;;;;5084962;28;20909;-38
2022/08/27 10:31:40;;;;;;;7.73;2.63;;;20.40;99.90;;;;;;5086859;28;20505;-38
2022/08/27 10:34:33;;;;;;;4.17;2.33;;;20.50;99.90;;;;;;5086533;28;20450;-39
2022/08/27 10:37:19;;;;;;;6.33;2.37;;;20.40;99.90;;;;;;5085433;28;20913;-39
2022/08/27 10:39:55;;;;;;;3.53;2.50;;;20.40;99.90;;;;;;5086563;28;20417;-39
2022/08/27 10:42:28;;;;;;;5.33;2.23;;;20.50;99.90;;;;;;5082240;28;20434;-38
2022/08/27 10:45:15;;;;;;;4.43;2.20;;;20.50;99.90;;;;;;5074375;28;20411;-40
2022/08/27 10:48:12;;;;;;;4.13;2.60;;;20.50;99.90;;;;;;5058699;28;20430;-38
2022/08/27 10:50:53;;;;;;;5.33;2.70;;;20.50;99.90;;;;;;5086257;28;21235;-38
2022/08/27 10:53:36;;;;;;;4.10;2.20;;;20.50;99.90;;;;;;5063854;28;20510;-40
2022/08/27 10:56:20;;;;;;;3.77;2.10;;;20.50;99.90;;;;;;5064631;28;20519;-38
2022/08/27 10:58:48;;;;;;;5.50;2.20;;;20.50;99.90;;;;;;5069990;28;20851;-38
2022/08/27 11:01:25;;;;;;;3.67;2.23;;;20.50;99.90;;;;;;5065465;28;20439;-40
2022/08/27 11:04:02;;;;;;;4.93;3.03;;;20.50;99.90;;;;;;5068409;27;20439;-38
2022/08/27 11:06:38;;;;;;;3.80;2.07;;;20.50;99.90;;;;;;5065565;28;20822;-38
2022/08/27 11:09:17;;;;;;;7.13;3.00;;;20.60;99.90;;;;;;5067094;27;20446;-38
2022/08/27 11:12:08;;;;;;;4.33;2.80;;;20.60;99.90;;;;;;5079997;28;20521;-39
2022/08/27 11:14:34;;;;;;;2.57;1.77;;;20.80;99.90;;;;;;5071492;28;20455;-38
2022/08/27 11:17:18;;;;;;;6.83;2.30;;;20.90;99.90;;;;;;5074816;28;20491;-37
2022/08/27 11:20:23;;;;;;;3.53;2.03;;;21.00;99.90;;;;;;5066800;28;20215;-38
2022/08/27 11:22:54;;;;;;;2.70;1.93;;;21.00;99.90;;;;;;5046643;28;20454;-38
2022/08/27 11:25:55;;;;;;;5.33;2.20;;;21.00;99.90;;;;;;5065920;28;20463;-38
2022/08/27 11:28:37;;;;;;;3.10;2.00;;;21.10;99.90;;;;;;5053125;28;20448;-38
2022/08/27 11:31:33;;;;;;;4.53;2.00;;;21.20;99.90;;;;;;5050825;28;20555;-38
2022/08/27 11:34:20;;;;;;;3.13;1.90;;;21.20;99.90;;;;;;5050103;28;20454;-40
2022/08/27 11:37:01;;;;;;;4.30;2.03;;;21.30;99.90;;;;;;5049547;28;20489;-38
2022/08/27 11:39:30;;;;;;;2.53;2.27;;;21.30;99.90;;;;;;5066113;28;20432;-39
2022/08/27 11:42:22;;;;;;;4.03;2.17;;;21.30;99.90;;;;;;5051544;28;20511;-39
2022/08/27 11:44:57;;;;;;;4.03;2.17;;;21.30;99.90;;;;;;5048635;28;20436;-38
2022/08/27 11:47:25;;;;;;;5.27;2.20;;;21.40;99.90;;;;;;5052544;27;20609;-38
2022/08/27 11:49:57;;;;;;;2.87;1.90;;;21.40;99.90;;;;;;5050986;28;20440;-38
2022/08/27 11:52:34;;;;;;;2.80;1.83;;;21.40;99.90;;;;;;5051615;28;20595;-37
2022/08/27 11:55:23;;;;;;;3.37;1.90;;;21.40;99.90;;;;;;5054625;28;20485;-39
2022/08/27 11:58:03;;;;;;;3.43;2.20;;;21.50;99.90;;;;;;5050193;28;20440;-37
2022/08/27 12:00:33;;;;;;;2.20;1.70;;;21.50;99.90;;;;;;5087643;28;20444;-37
2022/08/27 12:03:02;;;;;;;3.67;2.13;;;21.50;99.90;;;;;;5054432;28;20534;-38
2022/08/27 12:05:39;;;;;;;3.60;1.70;;;21.50;99.90;;;;;;5071243;28;20497;-40
2022/08/27 12:08:33;;;;;;;2.73;2.07;;;21.50;99.90;;;;;;5066071;27;20456;-38
2022/08/27 12:11:02;;;;;;;2.37;1.90;;;21.50;99.90;;;;;;5053457;28;21436;-38
2022/08/27 12:13:41;;;;;;;2.67;1.77;;;21.50;99.90;;;;;;5046947;28;20857;-37
2022/08/27 12:16:28;;;;;;;3.50;1.73;;;21.50;99.90;;;;;;5064659;28;20490;-37
2022/08/27 12:19:20;;;;;;;3.37;2.00;;;21.50;99.90;;;;;;5063032;28;20459;-39
2022/08/27 12:21:55;;;;;;;5.30;2.50;;;21.40;99.90;;;;;;5049189;28;20447;-39
2022/08/27 12:24:43;;;;;;;2.67;1.80;;;21.30;99.90;;;;;;5067757;28;20474;-38
2022/08/27 12:27:20;;;;;;;3.20;2.33;;;21.30;99.90;;;;;;5063333;28;20525;-38
2022/08/27 12:29:58;;;;;;;3.00;2.43;;;21.30;99.90;;;;;;5069892;28;20431;-38
2022/08/27 12:32:40;;;;;;;3.57;2.93;;;21.20;99.90;;;;;;5070495;28;20443;-39
2022/08/27 12:35:25;;;;;;;2.57;2.20;;;21.10;99.90;;;;;;5059288;28;20440;-38
2022/08/27 12:37:54;;;;;;;2.93;2.07;;;21.10;99.90;;;;;;5051162;27;20436;-39
2022/08/27 12:40:22;;;;;;;3.67;2.80;;;21.20;99.90;;;;;;5065645;28;20502;-37
2022/08/27 12:42:48;;;;;;;4.10;3.10;;;21.30;99.90;;;;;;5070441;27;20489;-37
2022/08/27 12:45:23;;;;;;;6.87;2.80;;;21.20;99.90;;;;;;5070299;28;20938;-38
2022/08/27 12:47:50;;;;;;;7.03;2.80;;;21.20;99.90;;;;;;5069464;28;20549;-38
2022/08/27 12:50:22;;;;;;;3.00;2.53;;;21.20;99.90;;;;;;5061769;28;20980;-37
2022/08/27 12:53:35;;;;;;;3.63;2.47;;;21.20;99.90;;;;;;5056996;28;21179;-38
2022/08/27 12:56:28;;;;;;;3.03;2.70;;;21.20;99.90;;;;;;5035413;28;20459;-37
2022/08/27 12:59:34;;;;;;;5.60;2.67;;;21.30;99.90;;;;;;5052470;28;20452;-37
2022/08/27 13:02:22;;;;;;;4.33;3.17;;;21.40;99.90;;;;;;5050065;28;20501;-37
2022/08/27 13:04:48;;;;;;;2.53;1.93;;;21.40;99.90;;;;;;5064151;28;20439;-38
2022/08/27 13:07:31;;;;;;;3.83;2.77;;;21.50;99.90;;;;;;5057369;28;20469;-39
2022/08/27 13:10:12;;;;;;;2.80;2.40;;;21.50;99.90;;;;;;5062266;28;20205;-38
2022/08/27 13:12:39;;;;;;;6.80;2.50;;;21.40;99.90;;;;;;5051297;28;20451;-38